Time;durP1;ratioP1;P1;durP2;ratioP2;P2;SDS_P1;SDS_P2;PMS_P1;PMS_P2;Temp;Humidity;BMP_temperature;BMP_pressure;BME280_temperature;BME280_humidity;BME280_pressure;Samples;Min_cycle;Max_cycle;Signal;HPM_P1;HPM_P2
2024/01/23 00:01:56;;;;;;;373.83;144.03;;;5.40;99.90;;;;;;5047796;28;20226;-49
2024/01/23 00:04:22;;;;;;;360.70;136.00;;;;;;;;;;5047337;28;20629;-49
2024/01/23 00:06:48;;;;;;;374.50;141.50;;;;;;;;;;5047576;28;20695;-50
2024/01/23 00:09:13;;;;;;;365.83;138.80;;;5.30;99.90;;;;;;5047522;28;20211;-49
2024/01/23 00:11:39;;;;;;;377.17;141.90;;;;;;;;;;5047419;28;20230;-49
2024/01/23 00:14:04;;;;;;;349.77;133.37;;;5.40;99.90;;;;;;5047678;28;20632;-50
2024/01/23 00:16:30;;;;;;;362.27;137.87;;;;;;;;;;5047586;28;20227;-50
2024/01/23 00:18:56;;;;;;;362.70;136.50;;;;;;;;;;5047053;28;20233;-50
2024/01/23 00:21:22;;;;;;;358.47;135.17;;;;;;;;;;5047193;28;20246;-50
2024/01/23 00:23:48;;;;;;;367.93;140.23;;;;;;;;;;5047151;28;20215;-50
2024/01/23 00:26:14;;;;;;;363.53;137.03;;;;;;;;;;5046992;28;20205;-50
2024/01/23 00:28:40;;;;;;;356.07;135.87;;;;;;;;;;5047565;28;20186;-50
2024/01/23 00:31:06;;;;;;;346.57;131.67;;;;;;;;;;5047059;28;20219;-50
2024/01/23 00:33:32;;;;;;;371.23;141.10;;;;;;;;;;5046935;28;20289;-50
2024/01/23 00:35:57;;;;;;;358.53;135.87;;;5.60;99.90;;;;;;5046826;28;20280;-50
2024/01/23 00:38:23;;;;;;;363.90;138.87;;;;;;;;;;5047056;28;20207;-50
2024/01/23 00:40:49;;;;;;;362.20;136.93;;;;;;;;;;5047764;28;20267;-50
2024/01/23 00:43:15;;;;;;;354.97;135.00;;;;;;;;;;5046904;28;20712;-50
2024/01/23 00:45:41;;;;;;;359.47;137.50;;;;;;;;;;5046811;28;20273;-50
2024/01/23 00:48:07;;;;;;;370.57;138.47;;;;;;;;;;5046866;28;20219;-50
2024/01/23 00:50:32;;;;;;;353.47;136.00;;;5.60;99.90;;;;;;5047009;28;20281;-49
2024/01/23 00:52:58;;;;;;;367.73;138.57;;;;;;;;;;5047253;28;20176;-50
2024/01/23 00:55:24;;;;;;;378.07;141.90;;;;;;;;;;5046361;28;20219;-50
2024/01/23 00:57:50;;;;;;;375.43;142.80;;;;;;;;;;5046775;28;20694;-50
2024/01/23 01:00:16;;;;;;;371.87;141.23;;;5.60;99.90;;;;;;5046395;28;20306;-50
2024/01/23 01:02:42;;;;;;;363.27;138.40;;;;;;;;;;5046637;28;20232;-50
2024/01/23 01:05:08;;;;;;;354.53;136.77;;;;;;;;;;5046692;28;20207;-51
2024/01/23 01:07:34;;;;;;;353.03;134.70;;;;;;;;;;5047220;28;20231;-50
2024/01/23 01:09:59;;;;;;;358.27;137.57;;;5.60;99.90;;;;;;5046519;28;20224;-50
2024/01/23 01:12:25;;;;;;;362.60;138.50;;;;;;;;;;5046550;28;20220;-51
2024/01/23 01:14:51;;;;;;;406.80;158.40;;;;;;;;;;5031988;28;20227;-52
2024/01/23 01:17:17;;;;;;;404.90;163.30;;;;;;;;;;5030172;28;20302;-52
2024/01/23 01:19:43;;;;;;;383.87;147.97;;;;;;;;;;5031392;28;20309;-52
2024/01/23 01:22:09;;;;;;;377.47;143.67;;;;;;;;;;5031189;28;20326;-52
2024/01/23 01:24:35;;;;;;;407.60;158.03;;;;;;;;;;5030069;28;20294;-53
2024/01/23 01:27:01;;;;;;;400.97;154.53;;;;;;;;;;5028559;28;20635;-53
2024/01/23 01:29:27;;;;;;;396.97;151.83;;;;;;;;;;5031943;28;20246;-52
2024/01/23 01:31:53;;;;;;;446.47;175.77;;;;;;;;;;5023596;28;25307;-52
2024/01/23 01:34:20;;;;;;;410.63;159.23;;;;;;;;;;5032038;28;20219;-52
2024/01/23 01:36:46;;;;;;;412.37;159.37;;;;;;;;;;5030929;28;20549;-52
2024/01/23 01:39:14;;;;;;;384.50;150.37;;;;;;;;;;5025511;28;20674;-52
2024/01/23 01:41:40;;;;;;;383.67;149.60;;;;;;;;;;5030879;28;20212;-52
2024/01/23 01:44:07;;;;;;;474.80;194.30;;;;;;;;;;5025204;28;20544;-53
2024/01/23 01:46:33;;;;;;;391.13;147.90;;;;;;;;;;5028460;28;20534;-53
2024/01/23 01:48:58;;;;;;;394.57;152.50;;;6.00;99.90;;;;;;5025755;28;20224;-54
2024/01/23 01:51:26;;;;;;;384.43;150.77;;;6.10;99.90;;;;;;5028666;28;20262;-53
2024/01/23 01:53:52;;;;;;;419.40;164.40;;;;;;;;;;5024158;28;20655;-53
2024/01/23 01:56:23;;;;;;;424.17;166.87;;;6.30;99.90;;;;;;5028522;28;20223;-52
2024/01/23 01:58:49;;;;;;;404.50;154.13;;;;;;;;;;5033888;28;20198;-53
2024/01/23 02:01:15;;;;;;;406.07;159.63;;;;;;;;;;5029357;28;20522;-53
2024/01/23 02:03:41;;;;;;;397.10;154.90;;;;;;;;;;5030339;28;20696;-53
2024/01/23 02:06:07;;;;;;;417.17;162.47;;;6.50;99.90;;;;;;5025973;28;20208;-52
2024/01/23 02:08:33;;;;;;;434.90;171.60;;;;;;;;;;5031050;28;20318;-52
2024/01/23 02:11:00;;;;;;;409.73;159.93;;;;;;;;;;5027127;28;20294;-53
2024/01/23 02:13:26;;;;;;;387.10;149.07;;;;;;;;;;5037416;28;20216;-53
2024/01/23 02:15:52;;;;;;;393.10;151.07;;;;;;;;;;5029790;28;20289;-52
2024/01/23 02:18:18;;;;;;;415.83;163.80;;;;;;;;;;5034874;28;20219;-53
2024/01/23 02:20:44;;;;;;;390.63;150.50;;;;;;;;;;5038241;28;20228;-52
2024/01/23 02:23:13;;;;;;;390.83;151.80;;;6.40;99.90;;;;;;5031258;28;20180;-54
2024/01/23 02:25:40;;;;;;;424.67;166.83;;;6.30;99.90;;;;;;5033094;28;20196;-53
2024/01/23 02:28:07;;;;;;;419.03;165.67;;;;;;;;;;5027946;28;20807;-53
2024/01/23 02:30:34;;;;;;;406.87;157.33;;;;;;;;;;5031168;28;20234;-52
2024/01/23 02:33:00;;;;;;;428.80;167.10;;;;;;;;;;5030268;28;20621;-52
2024/01/23 02:35:26;;;;;;;429.70;168.37;;;;;;;;;;5027726;28;20215;-52
2024/01/23 02:37:54;;;;;;;397.67;152.87;;;;;;;;;;5033756;28;20538;-53
2024/01/23 02:40:20;;;;;;;407.77;158.20;;;;;;;;;;5033178;28;20211;-52
2024/01/23 02:42:46;;;;;;;398.07;154.10;;;;;;;;;;5033530;28;20551;-52
2024/01/23 02:45:12;;;;;;;446.33;178.33;;;;;;;;;;5025524;28;20612;-53
2024/01/23 02:47:38;;;;;;;388.17;149.93;;;;;;;;;;5035345;28;21036;-53
2024/01/23 02:50:04;;;;;;;400.50;156.27;;;5.80;99.90;;;;;;5033171;28;20252;-53
2024/01/23 02:52:31;;;;;;;391.70;151.73;;;;;;;;;;5030193;28;20254;-52
2024/01/23 02:55:00;;;;;;;404.77;155.43;;;5.90;99.90;;;;;;5035174;28;20230;-52
2024/01/23 02:57:26;;;;;;;416.27;168.60;;;;;;;;;;5031319;28;20278;-53
2024/01/23 02:59:55;;;;;;;381.40;146.17;;;5.80;99.90;;;;;;5033116;28;20254;-53
2024/01/23 03:02:21;;;;;;;415.60;162.87;;;;;;;;;;5030718;28;21071;-52
2024/01/23 03:04:47;;;;;;;407.10;158.63;;;;;;;;;;5032618;28;20176;-54
2024/01/23 03:07:13;;;;;;;409.00;158.57;;;5.70;99.90;;;;;;5030971;28;21014;-53
2024/01/23 03:09:40;;;;;;;385.93;150.03;;;;;;;;;;5029312;28;20254;-53
2024/01/23 03:12:22;;;;;;;411.13;159.43;;;5.70;99.90;;;;;;5033684;28;20280;-52
2024/01/23 03:14:48;;;;;;;413.77;165.73;;;;;;;;;;5033231;28;20287;-52
2024/01/23 03:17:15;;;;;;;421.67;165.83;;;;;;;;;;5024960;28;20203;-53
2024/01/23 03:19:41;;;;;;;389.77;151.37;;;;;;;;;;5032094;28;20571;-52
2024/01/23 03:22:07;;;;;;;419.60;162.93;;;;;;;;;;5034680;28;20212;-52
2024/01/23 03:24:33;;;;;;;411.43;159.77;;;;;;;;;;5029886;28;20242;-53
2024/01/23 03:27:00;;;;;;;435.97;171.53;;;;;;;;;;5031179;28;20216;-52
2024/01/23 03:29:26;;;;;;;406.40;158.20;;;;;;;;;;5026772;28;20280;-52
2024/01/23 03:31:52;;;;;;;400.40;155.57;;;;;;;;;;5032344;28;20222;-52
2024/01/23 03:34:19;;;;;;;389.23;150.00;;;5.80;99.90;;;;;;5033384;28;20223;-52
2024/01/23 03:36:45;;;;;;;384.30;148.97;;;;;;;;;;5033648;28;20211;-53
2024/01/23 03:39:12;;;;;;;395.97;154.00;;;;;;;;;;5030387;28;20681;-52
2024/01/23 03:41:38;;;;;;;393.10;149.67;;;;;;;;;;5028206;28;20223;-53
2024/01/23 03:44:06;;;;;;;401.83;159.00;;;5.70;99.90;;;;;;5027409;28;20486;-51
2024/01/23 03:46:33;;;;;;;382.00;147.83;;;;;;;;;;5031248;28;20204;-53
2024/01/23 03:48:59;;;;;;;394.53;155.57;;;;;;;;;;5035015;28;20272;-52
2024/01/23 03:51:25;;;;;;;384.10;149.40;;;;;;;;;;5030343;28;20227;-52
2024/01/23 03:53:51;;;;;;;394.57;150.43;;;5.80;99.90;;;;;;5015947;28;20846;-52
2024/01/23 03:56:17;;;;;;;400.00;157.77;;;;;;;;;;5032817;28;20279;-53
2024/01/23 03:58:43;;;;;;;402.30;154.87;;;;;;;;;;5031612;28;20207;-52
2024/01/23 04:01:09;;;;;;;434.67;173.20;;;;;;;;;;5031733;28;20223;-53
2024/01/23 04:03:35;;;;;;;384.07;145.87;;;;;;;;;;5030570;28;20766;-53
2024/01/23 04:06:01;;;;;;;392.97;150.87;;;;;;;;;;5032335;28;20326;-54
2024/01/23 04:08:27;;;;;;;389.20;148.20;;;;;;;;;;5031041;28;20299;-53
2024/01/23 04:10:53;;;;;;;393.17;150.23;;;;;;;;;;5031493;28;20203;-53
2024/01/23 04:13:19;;;;;;;384.50;146.37;;;;;;;;;;5026190;28;20661;-53
2024/01/23 04:15:45;;;;;;;371.27;139.63;;;;;;;;;;5030470;28;20226;-53
2024/01/23 04:18:10;;;;;;;426.87;164.93;;;;;;;;;;5032292;28;20494;-52
2024/01/23 04:20:38;;;;;;;394.27;152.97;;;;;;;;;;5031715;28;20211;-52
2024/01/23 04:23:04;;;;;;;398.83;154.43;;;;;;;;;;5024507;28;20568;-53
2024/01/23 04:25:30;;;;;;;387.97;146.37;;;;;;;;;;5029159;28;20313;-54
2024/01/23 04:27:57;;;;;;;412.07;157.57;;;;;;;;;;5030564;28;20578;-52
2024/01/23 04:30:23;;;;;;;394.90;152.70;;;;;;;;;;5030298;28;20345;-53
2024/01/23 04:32:48;;;;;;;390.10;148.70;;;;;;;;;;5033176;28;20667;-53
2024/01/23 04:35:14;;;;;;;413.50;160.93;;;;;;;;;;5032849;28;20184;-53
2024/01/23 04:37:41;;;;;;;390.97;148.73;;;;;;;;;;5031013;28;20207;-53
2024/01/23 04:40:08;;;;;;;395.43;150.50;;;;;;;;;;5032555;28;20522;-52
2024/01/23 04:42:37;;;;;;;407.20;156.60;;;5.70;99.90;;;;;;5029568;28;20215;-53
2024/01/23 04:45:04;;;;;;;397.63;156.63;;;;;;;;;;5024600;28;20220;-52
2024/01/23 04:47:30;;;;;;;426.63;170.97;;;;;;;;;;5031761;28;20582;-52
2024/01/23 04:49:56;;;;;;;490.20;197.00;;;;;;;;;;5029004;28;20187;-52
2024/01/23 04:52:21;;;;;;;374.27;142.07;;;5.50;99.90;;;;;;5025456;28;20211;-52
2024/01/23 04:54:47;;;;;;;406.00;154.13;;;;;;;;;;5030289;28;20223;-52
2024/01/23 04:57:17;;;;;;;411.73;160.50;;;;;;;;;;5033016;28;20732;-52
2024/01/23 04:59:43;;;;;;;418.30;159.80;;;5.60;99.90;;;;;;5027118;28;20469;-53
2024/01/23 05:02:09;;;;;;;399.57;153.17;;;;;;;;;;5025787;28;20536;-53
2024/01/23 05:04:35;;;;;;;404.30;156.03;;;;;;;;;;5029838;28;20183;-52
2024/01/23 05:07:01;;;;;;;425.00;164.17;;;;;;;;;;5029972;28;20755;-51
2024/01/23 05:09:30;;;;;;;421.37;165.07;;;;;;;;;;5026759;28;20208;-54
2024/01/23 05:11:57;;;;;;;399.97;152.83;;;;;;;;;;5029535;28;20232;-53
2024/01/23 05:14:23;;;;;;;393.73;151.20;;;;;;;;;;5026275;28;20223;-53
2024/01/23 05:16:48;;;;;;;386.77;147.13;;;;;;;;;;5031093;28;20230;-53
2024/01/23 05:19:15;;;;;;;425.73;168.73;;;;;;;;;;5030239;28;20682;-52
2024/01/23 05:21:41;;;;;;;389.67;150.87;;;;;;;;;;5028673;28;20223;-52
2024/01/23 05:24:07;;;;;;;414.57;166.73;;;;;;;;;;5026233;28;20524;-52
2024/01/23 05:26:33;;;;;;;401.27;160.20;;;;;;;;;;5030620;28;20234;-53
2024/01/23 05:28:58;;;;;;;360.83;141.60;;;;;;;;;;5030623;28;20643;-52
2024/01/23 05:31:25;;;;;;;403.30;155.30;;;;;;;;;;5031273;28;20264;-52
2024/01/23 05:33:51;;;;;;;389.33;149.40;;;;;;;;;;5027551;28;20315;-52
2024/01/23 05:36:18;;;;;;;424.73;163.33;;;5.20;99.90;;;;;;5030414;28;20355;-52
2024/01/23 05:38:43;;;;;;;407.27;155.93;;;;;;;;;;5028288;28;20999;-51
2024/01/23 05:41:10;;;;;;;404.87;158.00;;;;;;;;;;5026307;28;20511;-52
2024/01/23 05:43:36;;;;;;;388.63;148.90;;;;;;;;;;5035969;28;20187;-52
2024/01/23 05:46:02;;;;;;;394.47;145.67;;;;;;;;;;5025281;28;20219;-51
2024/01/23 05:48:28;;;;;;;362.13;140.33;;;;;;;;;;5036332;28;20812;-52
2024/01/23 05:50:54;;;;;;;424.17;166.17;;;;;;;;;;5026805;28;20224;-51
2024/01/23 05:53:20;;;;;;;419.00;163.70;;;;;;;;;;5032421;28;20246;-52
2024/01/23 05:55:46;;;;;;;433.43;170.03;;;;;;;;;;5038288;28;20269;-51
2024/01/23 05:58:12;;;;;;;461.13;182.80;;;;;;;;;;5029640;28;20621;-52
2024/01/23 06:00:38;;;;;;;436.77;170.00;;;;;;;;;;5029949;28;20215;-52
2024/01/23 06:03:04;;;;;;;367.00;140.77;;;;;;;;;;5037357;28;20235;-51
2024/01/23 06:05:30;;;;;;;381.27;147.73;;;;;;;;;;5026747;28;20211;-52
2024/01/23 06:07:56;;;;;;;395.60;154.07;;;;;;;;;;5030833;28;20291;-51
2024/01/23 06:10:22;;;;;;;392.30;152.87;;;;;;;;;;5034502;28;20309;-53
2024/01/23 06:12:48;;;;;;;380.37;148.17;;;;;;;;;;5035053;28;20696;-52
2024/01/23 06:15:17;;;;;;;433.00;172.77;;;;;;;;;;5031610;28;20212;-52
2024/01/23 06:17:43;;;;;;;379.30;145.40;;;;;;;;;;5036090;28;20246;-51
2024/01/23 06:20:12;;;;;;;434.50;172.17;;;;;;;;;;5031355;28;20188;-51
2024/01/23 06:22:38;;;;;;;391.47;152.33;;;;;;;;;;5032978;28;20632;-51
2024/01/23 06:25:15;;;;;;;386.43;150.50;;;5.00;99.90;;;;;;5032846;28;20319;-50
2024/01/23 06:27:42;;;;;;;466.87;189.40;;;5.10;99.90;;;;;;5001027;28;20219;-50
2024/01/23 06:30:11;;;;;;;389.67;149.67;;;;;;;;;;5034070;28;20657;-51
2024/01/23 06:32:37;;;;;;;386.93;150.63;;;4.90;99.90;;;;;;5026355;28;20384;-51
2024/01/23 06:35:03;;;;;;;454.47;185.00;;;5.00;99.90;;;;;;5033409;28;21635;-52
2024/01/23 06:37:29;;;;;;;436.97;176.13;;;;;;;;;;5022718;28;20238;-51
2024/01/23 06:39:55;;;;;;;396.30;155.60;;;;;;;;;;5033689;28;20212;-51
2024/01/23 06:42:21;;;;;;;421.13;168.30;;;;;;;;;;5028628;28;20225;-50
2024/01/23 06:44:47;;;;;;;359.67;138.30;;;;;;;;;;5023129;28;20313;-52
2024/01/23 06:47:13;;;;;;;394.83;153.37;;;;;;;;;;5029744;28;20200;-53
2024/01/23 06:49:39;;;;;;;393.07;151.70;;;;;;;;;;5045696;28;20209;-53
2024/01/23 06:52:05;;;;;;;404.23;155.00;;;;;;;;;;5012811;28;20282;-58
2024/01/23 06:54:31;;;;;;;447.17;179.43;;;;;;;;;;5029851;28;20765;-53
2024/01/23 06:56:59;;;;;;;441.67;173.53;;;;;;;;;;5027255;28;20739;-54
2024/01/23 06:59:25;;;;;;;494.17;208.83;;;;;;;;;;5014828;28;20219;-53
2024/01/23 07:01:51;;;;;;;413.63;165.10;;;;;;;;;;5029780;28;20662;-53
2024/01/23 07:04:17;;;;;;;471.13;190.33;;;;;;;;;;5022999;28;20250;-51
2024/01/23 07:06:43;;;;;;;417.53;162.97;;;;;;;;;;5012088;28;20234;-51
2024/01/23 07:09:09;;;;;;;396.20;151.73;;;;;;;;;;5029726;28;20310;-50
2024/01/23 07:11:35;;;;;;;386.57;149.70;;;;;;;;;;5026055;28;20231;-50
2024/01/23 07:14:01;;;;;;;424.37;167.83;;;;;;;;;;5026137;28;20199;-56
2024/01/23 07:16:26;;;;;;;404.70;159.37;;;4.70;99.90;;;;;;5020843;28;20984;-54
2024/01/23 07:18:52;;;;;;;421.67;168.83;;;;;;;;;;5030418;28;20223;-55
2024/01/23 07:21:18;;;;;;;391.10;151.77;;;;;;;;;;5036736;28;20231;-54
2024/01/23 07:23:44;;;;;;;391.00;148.60;;;;;;;;;;5041328;28;20227;-55
2024/01/23 07:26:10;;;;;;;391.70;146.07;;;;;;;;;;5019657;28;23365;-54
2024/01/23 07:28:36;;;;;;;364.87;138.90;;;;;;;;;;5028931;28;20192;-55
2024/01/23 07:31:02;;;;;;;416.97;153.43;;;;;;;;;;5016742;28;20747;-54
2024/01/23 07:33:29;;;;;;;384.80;146.17;;;;;;;;;;5024624;28;20242;-54
2024/01/23 07:35:55;;;;;;;377.30;140.17;;;;;;;;;;5039618;28;20254;-54
2024/01/23 07:38:21;;;;;;;412.00;158.83;;;;;;;;;;5037063;28;20681;-54
2024/01/23 07:40:48;;;;;;;419.40;160.80;;;;;;;;;;5035080;28;20277;-53
2024/01/23 07:43:14;;;;;;;421.97;160.33;;;;;;;;;;5054545;28;20215;-53
2024/01/23 07:45:41;;;;;;;414.57;161.10;;;5.50;99.90;;;;;;5045832;28;20329;-54
2024/01/23 07:48:07;;;;;;;372.40;142.77;;;;;;;;;;5044465;28;21654;-54
2024/01/23 07:50:33;;;;;;;379.40;145.07;;;;;;;;;;5039610;28;20306;-54
2024/01/23 07:52:59;;;;;;;383.83;147.23;;;;;;;;;;5034362;28;20613;-55
2024/01/23 07:55:25;;;;;;;386.17;150.20;;;5.20;99.90;;;;;;5052907;28;20693;-55
2024/01/23 07:57:51;;;;;;;365.03;140.50;;;;;;;;;;5044183;28;20246;-54
2024/01/23 08:00:18;;;;;;;401.00;153.47;;;;;;;;;;5050531;28;20314;-55
2024/01/23 08:02:44;;;;;;;394.93;154.53;;;;;;;;;;5033833;28;20220;-54
2024/01/23 08:05:10;;;;;;;436.60;172.60;;;;;;;;;;5034308;28;20187;-55
2024/01/23 08:07:37;;;;;;;368.67;143.47;;;;;;;;;;5038457;28;20280;-54
2024/01/23 08:10:03;;;;;;;365.87;141.47;;;5.30;99.90;;;;;;5025084;28;20218;-55
2024/01/23 08:12:29;;;;;;;459.67;186.20;;;;;;;;;;5035234;28;20215;-55
2024/01/23 08:14:55;;;;;;;490.87;207.70;;;5.50;99.90;;;;;;5025768;28;20309;-55
2024/01/23 08:17:20;;;;;;;402.67;161.47;;;5.60;99.90;;;;;;5023820;28;20226;-55
2024/01/23 08:19:46;;;;;;;389.63;151.13;;;;;;;;;;5028895;28;20191;-55
2024/01/23 08:22:17;;;;;;;353.93;132.83;;;5.60;99.90;;;;;;5026914;28;20704;-54
2024/01/23 08:24:43;;;;;;;414.17;160.47;;;;;;;;;;5026867;28;20223;-55
2024/01/23 08:27:09;;;;;;;478.23;176.63;;;;;;;;;;5018915;28;20298;-55
2024/01/23 08:29:36;;;;;;;419.50;157.00;;;;;;;;;;5023493;28;20403;-55
2024/01/23 08:32:03;;;;;;;422.53;158.03;;;;;;;;;;5013115;28;20222;-55
2024/01/23 08:34:29;;;;;;;434.37;168.57;;;;;;;;;;5018825;28;20187;-55
2024/01/23 08:36:54;;;;;;;419.83;163.07;;;;;;;;;;5023433;28;20329;-55
2024/01/23 08:39:21;;;;;;;434.60;176.10;;;;;;;;;;5027197;28;20221;-55
2024/01/23 08:41:47;;;;;;;435.43;173.43;;;;;;;;;;5029792;28;20272;-55
2024/01/23 08:44:12;;;;;;;402.23;157.70;;;;;;;;;;5034547;28;20266;-54
2024/01/23 08:46:38;;;;;;;356.93;134.97;;;;;;;;;;5042253;28;20210;-55
2024/01/23 08:49:04;;;;;;;409.90;159.33;;;6.00;99.90;;;;;;5028757;28;25282;-55
2024/01/23 08:51:30;;;;;;;391.47;151.17;;;;;;;;;;5029040;28;20236;-55
2024/01/23 08:53:56;;;;;;;412.93;161.90;;;;;;;;;;5028553;28;20873;-55
2024/01/23 08:56:23;;;;;;;392.47;152.93;;;5.90;99.90;;;;;;5030123;28;20234;-55
2024/01/23 08:58:49;;;;;;;421.90;167.63;;;;;;;;;;5043017;28;20278;-54
2024/01/23 09:01:16;;;;;;;419.67;164.57;;;;;;;;;;5028582;28;20214;-54
2024/01/23 09:03:42;;;;;;;443.23;174.40;;;;;;;;;;5026171;28;20235;-55
2024/01/23 09:06:09;;;;;;;471.07;187.43;;;;;;;;;;5017797;28;20303;-54
2024/01/23 09:08:35;;;;;;;415.60;164.53;;;;;;;;;;5023509;28;20301;-55
2024/01/23 09:11:01;;;;;;;390.70;149.30;;;;;;;;;;5047596;28;20207;-54
2024/01/23 09:13:31;;;;;;;443.97;173.80;;;6.00;99.90;;;;;;5035168;28;20194;-54
2024/01/23 09:15:57;;;;;;;379.83;140.57;;;;;;;;;;5033554;28;20353;-54
2024/01/23 09:18:23;;;;;;;432.37;170.13;;;;;;;;;;5026786;28;20744;-54
2024/01/23 09:20:49;;;;;;;412.23;160.40;;;;;;;;;;5034655;28;20211;-54
2024/01/23 09:23:15;;;;;;;438.70;174.47;;;;;;;;;;5030787;28;20194;-54
2024/01/23 09:25:41;;;;;;;439.60;173.97;;;;;;;;;;5035761;28;20661;-54
2024/01/23 09:28:06;;;;;;;373.97;142.37;;;6.20;99.90;;;;;;5033069;28;20296;-54
2024/01/23 09:30:32;;;;;;;386.80;148.93;;;;;;;;;;5036465;28;20313;-54
2024/01/23 09:33:00;;;;;;;403.47;156.73;;;;;;;;;;5041942;28;20572;-54
2024/01/23 09:35:26;;;;;;;419.20;166.87;;;;;;;;;;5035099;28;20294;-54
2024/01/23 09:37:51;;;;;;;378.57;144.97;;;6.40;99.90;;;;;;5040303;28;20271;-54
2024/01/23 09:40:17;;;;;;;384.23;147.83;;;;;;;;;;5044212;28;20215;-54
2024/01/23 09:42:43;;;;;;;400.50;149.70;;;;;;;;;;5046719;28;20247;-55
2024/01/23 09:45:19;;;;;;;379.80;146.13;;;6.40;99.90;;;;;;5041413;28;20590;-54
2024/01/23 09:47:49;;;;;;;379.07;146.53;;;6.50;99.90;;;;;;5043023;28;20666;-54
2024/01/23 09:50:17;;;;;;;470.70;191.77;;;6.50;99.90;;;;;;5043658;28;20203;-55
2024/01/23 09:52:45;;;;;;;449.27;179.80;;;6.50;99.90;;;;;;5036457;28;20211;-54
2024/01/23 09:55:11;;;;;;;393.43;149.27;;;;;;;;;;5038891;28;20204;-54
2024/01/23 09:57:42;;;;;;;411.10;160.33;;;6.40;99.90;;;;;;5047286;28;20532;-54
2024/01/23 10:00:12;;;;;;;382.07;146.33;;;6.60;99.90;;;;;;5046177;28;20247;-54
2024/01/23 10:02:39;;;;;;;408.33;160.80;;;6.70;99.90;;;;;;5051354;28;20274;-55
2024/01/23 10:05:09;;;;;;;403.97;152.47;;;6.60;99.90;;;;;;5050981;28;20180;-54
2024/01/23 10:07:36;;;;;;;423.27;162.60;;;;;;;;;;5050464;28;20195;-53
2024/01/23 10:10:12;;;;;;;396.03;151.17;;;;;;;;;;5052370;28;20266;-53
2024/01/23 10:12:38;;;;;;;405.93;155.33;;;;;;;;;;5041107;28;20701;-53
2024/01/23 10:15:04;;;;;;;432.03;171.87;;;6.70;99.90;;;;;;5038034;28;20208;-55
2024/01/23 10:17:30;;;;;;;428.93;167.70;;;6.70;99.90;;;;;;5039384;28;20386;-53
2024/01/23 10:19:55;;;;;;;402.47;152.83;;;6.70;99.90;;;;;;5029326;28;20830;-53
2024/01/23 10:22:21;;;;;;;407.97;159.27;;;;;;;;;;5034294;28;20658;-56
2024/01/23 10:24:47;;;;;;;372.17;144.17;;;;;;;;;;5032771;28;20235;-54
2024/01/23 10:27:13;;;;;;;380.70;147.57;;;;;;;;;;5042419;28;20529;-55
2024/01/23 10:29:39;;;;;;;409.70;159.90;;;;;;;;;;5042241;28;20656;-55
2024/01/23 10:32:06;;;;;;;392.30;147.90;;;;;;;;;;5040461;28;20211;-54
2024/01/23 10:34:32;;;;;;;434.87;171.30;;;;;;;;;;5041767;28;20271;-55
2024/01/23 10:36:58;;;;;;;381.87;149.63;;;;;;;;;;5035195;28;20950;-55
2024/01/23 10:39:27;;;;;;;559.33;243.13;;;6.80;99.90;;;;;;5017035;28;20215;-55
2024/01/23 10:41:53;;;;;;;450.70;179.27;;;;;;;;;;5019330;28;20230;-54
2024/01/23 10:44:22;;;;;;;418.10;165.77;;;6.90;99.90;;;;;;5031640;28;20191;-54
2024/01/23 10:46:49;;;;;;;452.47;182.57;;;6.80;99.90;;;;;;5023808;28;20261;-55
2024/01/23 10:49:15;;;;;;;408.67;160.43;;;;;;;;;;5022769;28;20218;-54
2024/01/23 10:51:45;;;;;;;442.27;178.27;;;6.80;99.90;;;;;;5021899;28;20239;-54
2024/01/23 10:54:24;;;;;;;370.23;143.87;;;6.80;99.90;;;;;;5035395;28;20644;-54
2024/01/23 10:56:52;;;;;;;404.50;158.97;;;;;;;;;;5042436;28;20216;-54
2024/01/23 10:59:19;;;;;;;440.97;178.17;;;;;;;;;;5035641;28;20219;-54
2024/01/23 11:01:45;;;;;;;407.23;161.67;;;8.80;99.90;;;;;;5031368;28;20180;-55
2024/01/23 11:04:11;;;;;;;532.97;225.13;;;;;;;;;;5023211;28;20709;-54
2024/01/23 11:06:49;;;;;;;398.37;154.00;;;5.10;99.90;;;;;;5028493;28;20225;-54
2024/01/23 11:09:38;;;;;;;433.43;169.53;;;6.90;99.90;;;;;;5041838;28;20211;-54
2024/01/23 11:12:27;;;;;;;402.17;152.83;;;7.10;99.90;;;;;;5040726;28;20245;-54
2024/01/23 11:15:00;;;;;;;420.20;162.00;;;7.10;99.90;;;;;;5035664;28;20330;-54
2024/01/23 11:17:31;;;;;;;485.93;201.70;;;;;;;;;;5032936;28;20259;-54
2024/01/23 11:20:13;;;;;;;380.30;147.27;;;7.00;99.90;;;;;;5029630;28;20567;-54
2024/01/23 11:22:39;;;;;;;448.90;181.10;;;6.90;99.90;;;;;;5026840;28;20448;-53
2024/01/23 11:25:05;;;;;;;409.50;160.83;;;;;;;;;;5034141;28;20425;-54
2024/01/23 11:27:33;;;;;;;428.77;168.73;;;7.00;99.90;;;;;;5025703;28;21335;-54
2024/01/23 11:29:59;;;;;;;453.33;181.37;;;;;;;;;;5024712;28;20247;-54
2024/01/23 11:32:29;;;;;;;387.77;149.10;;;5.10;99.90;;;;;;5033344;28;20212;-54
2024/01/23 11:35:19;;;;;;;354.90;136.63;;;7.00;99.90;;;;;;5033217;28;20179;-54
2024/01/23 11:37:53;;;;;;;396.00;152.50;;;7.00;99.90;;;;;;5018472;28;20270;-54
2024/01/23 11:40:33;;;;;;;396.80;154.10;;;7.00;99.90;;;;;;5027304;28;20223;-54
2024/01/23 11:43:04;;;;;;;384.40;148.90;;;7.10;99.90;;;;;;5025060;28;20219;-54
2024/01/23 11:45:32;;;;;;;410.07;161.87;;;7.20;99.90;;;;;;5033285;28;22864;-53
2024/01/23 11:48:05;;;;;;;441.17;177.40;;;7.20;99.90;;;;;;5025110;28;20227;-53
2024/01/23 11:50:32;;;;;;;405.63;159.20;;;;;;;;;;5037779;28;20218;-54
2024/01/23 11:52:59;;;;;;;392.00;152.70;;;7.70;99.90;;;;;;5033719;28;20184;-54
2024/01/23 11:55:25;;;;;;;399.87;154.10;;;6.30;99.90;;;;;;5037958;28;20681;-54
2024/01/23 11:57:58;;;;;;;388.77;149.00;;;7.50;99.90;;;;;;5035147;28;20223;-54
2024/01/23 12:00:25;;;;;;;388.67;148.93;;;7.30;99.90;;;;;;5031966;28;20682;-54
2024/01/23 12:02:51;;;;;;;426.17;167.47;;;7.60;99.90;;;;;;5032622;28;20570;-54
2024/01/23 12:05:17;;;;;;;411.17;163.00;;;7.30;99.90;;;;;;5026869;28;20194;-54
2024/01/23 12:07:43;;;;;;;442.07;180.43;;;;;;;;;;5026179;28;20211;-54
2024/01/23 12:10:13;;;;;;;379.20;146.60;;;7.60;99.90;;;;;;5021590;28;20582;-54
2024/01/23 12:12:40;;;;;;;404.97;160.70;;;;;;;;;;5032545;28;20217;-55
2024/01/23 12:15:07;;;;;;;403.57;156.07;;;7.30;99.90;;;;;;5032786;28;20275;-54
2024/01/23 12:17:34;;;;;;;457.00;182.00;;;7.40;99.90;;;;;;5029068;28;20215;-54
2024/01/23 12:20:09;;;;;;;405.73;154.40;;;7.50;99.90;;;;;;5030135;28;20218;-54
2024/01/23 12:22:36;;;;;;;436.07;176.50;;;7.50;99.90;;;;;;5030607;28;20258;-53
2024/01/23 12:25:02;;;;;;;411.07;164.93;;;;;;;;;;5033676;28;20317;-54
2024/01/23 12:27:30;;;;;;;412.03;164.70;;;7.70;99.90;;;;;;5035517;28;20318;-54
2024/01/23 12:29:56;;;;;;;377.97;151.27;;;;;;;;;;5032661;28;20242;-54
2024/01/23 12:32:27;;;;;;;395.13;152.63;;;7.80;99.90;;;;;;5037731;28;20706;-54
2024/01/23 12:34:53;;;;;;;408.37;160.37;;;;;;;;;;5028766;28;20392;-54
2024/01/23 12:37:19;;;;;;;443.20;178.37;;;;;;;;;;5032672;28;20700;-54
2024/01/23 12:39:45;;;;;;;399.03;156.77;;;7.70;99.90;;;;;;5030632;28;20246;-54
2024/01/23 12:42:11;;;;;;;416.57;167.33;;;;;;;;;;5031202;28;20315;-54
2024/01/23 12:44:37;;;;;;;442.97;174.20;;;;;;;;;;5031027;28;20636;-54
2024/01/23 12:47:08;;;;;;;416.40;168.90;;;7.60;99.90;;;;;;5032649;28;20626;-54
2024/01/23 12:49:37;;;;;;;385.07;151.17;;;7.50;99.90;;;;;;5039681;28;20230;-54
2024/01/23 12:52:03;;;;;;;388.87;154.03;;;;;;;;;;5028447;28;21131;-54
2024/01/23 12:54:29;;;;;;;378.23;145.77;;;;;;;;;;5032769;28;20310;-54
2024/01/23 12:56:55;;;;;;;409.23;157.97;;;;;;;;;;5029889;28;20314;-55
2024/01/23 12:59:21;;;;;;;426.53;171.03;;;;;;;;;;5036962;28;20239;-54
2024/01/23 13:01:48;;;;;;;425.23;168.37;;;;;;;;;;5028436;28;20203;-55
2024/01/23 13:04:13;;;;;;;416.07;164.47;;;;;;;;;;5030589;28;20317;-54
2024/01/23 13:06:40;;;;;;;443.40;173.70;;;;;;;;;;5022966;28;20267;-55
2024/01/23 13:09:08;;;;;;;412.40;163.37;;;;;;;;;;5020506;28;20215;-55
2024/01/23 13:11:34;;;;;;;400.53;155.97;;;;;;;;;;5030748;28;20649;-55
2024/01/23 13:14:00;;;;;;;372.77;141.50;;;;;;;;;;5049438;28;20282;-50
2024/01/23 13:16:26;;;;;;;367.47;140.70;;;7.80;99.90;;;;;;5067901;28;20312;-50
2024/01/23 13:18:52;;;;;;;364.67;137.63;;;;;;;;;;5066874;28;20348;-50
2024/01/23 13:21:18;;;;;;;367.97;139.03;;;;;;;;;;5068371;28;20202;-50
2024/01/23 13:23:44;;;;;;;365.87;135.80;;;;;;;;;;5068105;28;20584;-50